createdAt,value
2018-12-02T00:00:20.870Z,5.60
2018-12-02T00:02:49.076Z,4.47
2018-12-02T00:05:17.176Z,3.40
2018-12-02T00:07:45.360Z,3.03
2018-12-02T00:10:14.445Z,2.93
2018-12-02T00:12:42.570Z,2.43
2018-12-02T00:15:16.869Z,2.87
2018-12-02T00:17:45.092Z,3.37
2018-12-02T00:20:14.077Z,3.57
2018-12-02T00:22:42.244Z,1.30
2018-12-02T00:25:12.172Z,2.87
2018-12-02T00:27:40.766Z,4.73
2018-12-02T00:30:24.958Z,4.20
2018-12-02T00:32:53.384Z,3.30
2018-12-02T00:35:21.560Z,7.23
2018-12-02T00:37:51.890Z,2.40
2018-12-02T00:40:20.765Z,4.53
2018-12-02T00:42:51.107Z,1.27
2018-12-02T00:45:20.588Z,2.73
2018-12-02T00:47:48.849Z,3.93
2018-12-02T00:50:17.825Z,8.67
2018-12-02T00:52:47.110Z,4.20
2018-12-02T00:55:24.395Z,1.20
2018-12-02T00:57:52.769Z,1.93
2018-12-02T01:00:20.977Z,1.33
2018-12-02T01:02:50.145Z,2.17
2018-12-02T01:05:19.185Z,0.97
2018-12-02T01:07:47.392Z,1.50
2018-12-02T01:10:21.265Z,1.03
2018-12-02T01:12:50.563Z,1.13
2018-12-02T01:15:21.361Z,1.97
2018-12-02T01:17:49.577Z,0.77
2018-12-02T01:20:19.771Z,0.70
2018-12-02T01:22:47.880Z,0.97
2018-12-02T01:25:16.072Z,2.73
2018-12-02T01:27:45.137Z,3.10
2018-12-02T01:30:22.042Z,2.43
2018-12-02T01:32:52.397Z,0.67
2018-12-02T01:35:20.693Z,1.27
2018-12-02T01:37:49.109Z,0.83
2018-12-02T01:40:20.066Z,0.87
2018-12-02T01:42:48.808Z,2.63
2018-12-02T01:47:55.300Z,0.80
2018-12-02T01:50:24.409Z,0.53
2018-12-02T01:52:54.580Z,1.20
2018-12-02T01:55:22.779Z,0.77
2018-12-02T01:57:50.972Z,0.57
2018-12-02T02:00:21.160Z,0.53
2018-12-02T02:02:49.662Z,1.73
2018-12-02T02:05:18.933Z,0.40
2018-12-02T02:07:47.263Z,0.57
2018-12-02T02:10:27.225Z,0.60
2018-12-02T02:12:55.441Z,0.50
2018-12-02T02:15:23.938Z,0.50
2018-12-02T02:17:52.108Z,1.03
2018-12-02T02:20:21.411Z,0.70
2018-12-02T02:22:49.880Z,0.40
2018-12-02T02:25:19.193Z,0.43
2018-12-02T02:27:48.725Z,2.43
2018-12-02T02:30:19.325Z,0.57
2018-12-02T02:32:47.573Z,1.87
2018-12-02T02:35:16.848Z,0.77
2018-12-02T02:37:45.243Z,0.80
2018-12-02T02:40:15.693Z,0.50
2018-12-02T02:42:43.929Z,0.57
2018-12-02T02:45:12.924Z,0.33
2018-12-02T02:50:20.562Z,1.50
2018-12-02T02:52:50.668Z,0.40
2018-12-02T02:55:19.321Z,0.70
2018-12-02T02:57:47.557Z,0.40
2018-12-02T03:00:21.997Z,0.57
2018-12-02T03:02:50.355Z,0.40
2018-12-02T03:05:18.732Z,0.40
2018-12-02T03:07:46.968Z,0.40
2018-12-02T03:10:17.037Z,1.80
2018-12-02T03:12:47.961Z,0.63
2018-12-02T03:15:17.267Z,0.60
2018-12-02T03:17:45.495Z,2.03
2018-12-02T03:20:15.529Z,2.13
2018-12-02T03:22:44.748Z,0.20
2018-12-02T03:25:14.284Z,0.50
2018-12-02T03:27:42.456Z,0.83
2018-12-02T03:30:13.944Z,0.87
2018-12-02T03:32:42.126Z,0.20
2018-12-02T03:35:12.142Z,0.30
2018-12-02T03:37:40.340Z,0.53
2018-12-02T03:40:10.253Z,0.23
2018-12-02T03:42:38.606Z,0.30
2018-12-02T03:45:08.648Z,0.40
2018-12-02T03:47:37.047Z,0.40
2018-12-02T03:50:17.681Z,0.40
2018-12-02T03:52:44.642Z,1.40
2018-12-02T03:55:13.197Z,0.37
2018-12-02T03:57:41.607Z,0.23
2018-12-02T04:00:25.461Z,0.40
2018-12-02T04:02:55.746Z,0.50
2018-12-02T04:05:24.931Z,0.27
2018-12-02T04:07:53.184Z,0.80
2018-12-02T04:10:21.464Z,0.33
2018-12-02T04:12:50.577Z,0.77
2018-12-02T04:15:21.079Z,1.03
2018-12-02T04:17:49.271Z,1.30
2018-12-02T04:20:18.162Z,0.20
2018-12-02T04:22:47.346Z,0.40
2018-12-02T04:25:19.300Z,0.50
2018-12-02T04:27:47.521Z,2.40
2018-12-02T04:30:16.539Z,0.37
2018-12-02T04:32:45.089Z,0.87
2018-12-02T04:35:22.055Z,0.77
2018-12-02T04:37:50.209Z,0.67
2018-12-02T04:40:18.604Z,0.20
2018-12-02T04:42:46.949Z,0.40
2018-12-02T04:45:16.102Z,0.20
2018-12-02T04:47:44.277Z,1.97
2018-12-02T04:50:17.458Z,0.10
2018-12-02T04:52:45.640Z,0.27
2018-12-02T04:55:13.814Z,0.30
2018-12-02T04:57:41.993Z,1.07
2018-12-02T05:00:18.728Z,0.73
2018-12-02T05:02:49.261Z,0.90
2018-12-02T05:05:19.496Z,0.20
2018-12-02T05:07:47.732Z,0.93
2018-12-02T05:10:17.755Z,0.20
2018-12-02T05:12:45.854Z,0.30
2018-12-02T05:17:51.220Z,0.30
2018-12-02T05:20:20.296Z,0.30
2018-12-02T05:22:48.436Z,0.27
2018-12-02T05:25:18.393Z,0.20
2018-12-02T05:27:45.684Z,0.77
2018-12-02T05:30:16.718Z,0.20
2018-12-02T05:32:45.720Z,0.30
2018-12-02T05:35:14.306Z,0.20
2018-12-02T05:37:42.563Z,0.10
2018-12-02T05:40:12.708Z,0.13
2018-12-02T05:42:40.934Z,0.30
2018-12-02T05:45:10.279Z,0.20
2018-12-02T05:47:38.478Z,0.10
2018-12-02T05:50:13.896Z,0.30
2018-12-02T05:52:42.096Z,0.33
2018-12-02T05:55:13.270Z,0.17
2018-12-02T05:57:41.850Z,0.20
2018-12-02T06:00:13.345Z,0.20
2018-12-02T06:02:41.549Z,0.30
2018-12-02T06:05:10.692Z,0.20
2018-12-02T06:07:38.945Z,0.53
2018-12-02T06:10:12.364Z,0.20
2018-12-02T06:12:40.557Z,0.27
2018-12-02T06:15:13.476Z,0.30
2018-12-02T06:17:41.721Z,0.10
2018-12-02T06:20:18.877Z,0.27
2018-12-02T06:22:47.389Z,0.43
2018-12-02T06:25:15.507Z,0.17
2018-12-02T06:27:43.823Z,0.20
2018-12-02T06:30:13.970Z,0.37
2018-12-02T06:32:42.468Z,0.20
2018-12-02T06:35:11.829Z,0.10
2018-12-02T06:37:40.052Z,0.30
2018-12-02T06:40:15.597Z,0.10
2018-12-02T06:42:44.174Z,0.30
2018-12-02T06:45:13.346Z,1.97
2018-12-02T06:47:41.662Z,0.47
2018-12-02T06:50:12.056Z,0.10
2018-12-02T06:52:40.217Z,0.20
2018-12-02T06:55:20.736Z,0.40
2018-12-02T06:57:56.143Z,0.10
2018-12-02T07:00:37.713Z,0.20
2018-12-02T07:04:19.105Z,0.20
2018-12-02T07:06:47.220Z,1.13
2018-12-02T07:09:15.641Z,0.83
2018-12-02T07:11:43.842Z,0.10
2018-12-02T07:14:12.080Z,0.13
2018-12-02T07:16:40.264Z,0.20
2018-12-02T07:19:13.340Z,0.70
2018-12-02T07:21:43.537Z,0.10
2018-12-02T07:24:17.697Z,0.17
2018-12-02T07:26:48.980Z,0.10
2018-12-02T07:29:17.132Z,0.77
2018-12-02T07:31:45.485Z,0.77
2018-12-02T07:34:13.648Z,0.87
2018-12-02T07:36:41.953Z,0.70
2018-12-02T07:39:19.748Z,0.20
2018-12-02T07:41:47.912Z,0.20
2018-12-02T07:44:16.128Z,0.33
2018-12-02T07:46:44.374Z,0.67
2018-12-02T07:49:12.945Z,0.30
2018-12-02T07:51:41.120Z,0.30
2018-12-02T07:54:09.282Z,2.63
2018-12-02T07:56:37.526Z,0.40
2018-12-02T07:59:05.859Z,0.30
2018-12-02T08:04:11.286Z,0.60
2018-12-02T08:06:39.578Z,0.83
2018-12-02T08:09:07.751Z,0.27
2018-12-02T08:11:35.908Z,0.30
2018-12-02T08:14:04.038Z,3.50
2018-12-02T08:16:32.204Z,0.20
2018-12-02T08:19:00.537Z,0.60
2018-12-02T08:21:28.628Z,1.10
2018-12-02T08:23:56.789Z,1.23
2018-12-02T08:26:24.930Z,5.00
2018-12-02T08:28:53.089Z,1.40
2018-12-02T08:31:21.208Z,0.40
2018-12-02T08:33:49.313Z,0.40
2018-12-02T08:36:17.418Z,0.30
2018-12-02T08:38:45.577Z,0.20
2018-12-02T08:41:13.912Z,0.30
2018-12-02T08:43:42.049Z,0.30
2018-12-02T08:46:10.117Z,0.30
2018-12-02T08:48:38.240Z,0.40
2018-12-02T08:51:06.291Z,1.23
2018-12-02T08:53:34.405Z,0.50
2018-12-02T08:56:02.540Z,0.60
2018-12-02T08:58:30.761Z,0.50
2018-12-02T09:00:58.852Z,0.70
2018-12-02T09:03:26.941Z,0.50
2018-12-02T09:05:55.284Z,0.30
2018-12-02T09:08:23.801Z,0.30
2018-12-02T09:10:51.951Z,0.30
2018-12-02T09:13:20.037Z,0.40
2018-12-02T09:15:48.093Z,0.30
2018-12-02T09:18:16.172Z,0.20
2018-12-02T09:20:44.342Z,0.20
2018-12-02T09:23:13.161Z,1.03
2018-12-02T09:25:40.658Z,0.50
2018-12-02T09:28:09.316Z,0.30
2018-12-02T09:30:37.904Z,1.00
2018-12-02T09:33:06.277Z,0.30
2018-12-02T09:35:34.358Z,0.43
2018-12-02T09:38:02.673Z,0.20
2018-12-02T09:40:31.082Z,1.80
2018-12-02T09:42:59.144Z,1.83
2018-12-02T09:45:28.255Z,0.43
2018-12-02T09:47:57.638Z,0.40
2018-12-02T09:50:25.723Z,1.37
2018-12-02T09:52:53.772Z,0.73
2018-12-02T09:55:24.006Z,0.50
2018-12-02T09:57:52.480Z,0.70
2018-12-02T10:00:20.976Z,0.30
2018-12-02T10:02:49.077Z,0.30
2018-12-02T10:05:17.166Z,0.87
2018-12-02T10:07:45.287Z,0.20
2018-12-02T10:10:22.142Z,0.87
2018-12-02T10:12:45.964Z,0.70
2018-12-02T10:15:14.984Z,0.20
2018-12-02T10:17:43.114Z,0.30
2018-12-02T10:20:12.706Z,0.50
2018-12-02T10:22:41.079Z,3.03
2018-12-02T10:25:11.388Z,0.73
2018-12-02T10:27:39.499Z,0.70
2018-12-02T10:30:21.228Z,7.73
2018-12-02T10:32:50.114Z,4.00
2018-12-02T10:35:18.193Z,8.23
2018-12-02T10:37:46.436Z,3.33
2018-12-02T10:40:16.867Z,5.17
2018-12-02T10:42:45.152Z,2.83
2018-12-02T10:45:15.480Z,2.83
2018-12-02T10:47:44.012Z,4.10
2018-12-02T10:50:16.081Z,2.03
2018-12-02T10:52:44.184Z,1.30
2018-12-02T10:55:15.533Z,0.33
2018-12-02T10:57:47.648Z,0.30
2018-12-02T11:00:16.448Z,4.10
2018-12-02T11:02:47.016Z,9.20
2018-12-02T11:05:15.273Z,2.63
2018-12-02T11:07:43.497Z,7.00
2018-12-02T11:10:12.745Z,3.13
2018-12-02T11:12:40.818Z,1.83
2018-12-02T11:15:11.452Z,3.10
2018-12-02T11:17:39.568Z,1.07
2018-12-02T11:20:09.859Z,3.50
2018-12-02T11:22:38.084Z,1.90
2018-12-02T11:25:08.412Z,4.57
2018-12-02T11:27:36.832Z,7.53
2018-12-02T11:30:12.841Z,6.27
2018-12-02T11:32:41.274Z,5.10
2018-12-02T11:35:10.728Z,5.67
2018-12-02T11:37:38.861Z,3.87
2018-12-02T11:40:11.184Z,4.30
2018-12-02T11:42:39.253Z,9.90
2018-12-02T11:45:09.300Z,2.47
2018-12-02T11:47:37.557Z,4.20
2018-12-02T11:50:09.289Z,4.30
2018-12-02T11:52:37.369Z,4.43
2018-12-02T11:55:05.660Z,1.67
2018-12-02T11:57:33.739Z,2.17
2018-12-02T12:00:01.804Z,5.37
2018-12-02T12:02:30.116Z,2.90
2018-12-02T12:04:58.196Z,4.43
2018-12-02T12:07:26.312Z,1.80
2018-12-02T12:09:54.413Z,3.17
2018-12-02T12:12:22.495Z,1.60
2018-12-02T12:14:50.624Z,6.93
2018-12-02T12:17:18.694Z,4.77
2018-12-02T12:19:46.780Z,2.67
2018-12-02T12:22:14.836Z,1.97
2018-12-02T12:24:42.908Z,1.00
2018-12-02T12:27:10.985Z,8.97
2018-12-02T12:29:39.057Z,1.93
2018-12-02T12:32:07.132Z,3.90
2018-12-02T12:34:35.235Z,3.93
2018-12-02T12:37:03.328Z,6.60
2018-12-02T12:39:31.396Z,3.07
2018-12-02T12:41:59.502Z,4.77
2018-12-02T12:44:27.639Z,2.53
2018-12-02T12:46:55.720Z,2.77
2018-12-02T12:49:23.788Z,6.00
2018-12-02T12:51:51.892Z,9.23
2018-12-02T12:54:19.949Z,5.33
2018-12-02T12:56:48.034Z,8.90
2018-12-02T12:59:16.117Z,9.17
2018-12-02T13:01:44.192Z,14.17
2018-12-02T13:04:12.493Z,7.10
2018-12-02T13:06:40.580Z,18.07
2018-12-02T13:09:09.241Z,5.83
2018-12-02T13:11:37.304Z,5.20
2018-12-02T13:14:05.976Z,7.97
2018-12-02T13:16:35.493Z,15.13
2018-12-02T13:19:03.552Z,13.33
2018-12-02T13:21:31.616Z,21.87
2018-12-02T13:23:59.687Z,26.00
2018-12-02T13:26:27.774Z,14.00
2018-12-02T13:28:55.900Z,13.60
2018-12-02T13:31:23.972Z,10.73
2018-12-02T13:33:52.056Z,6.97
2018-12-02T13:36:20.104Z,12.33
2018-12-02T13:38:48.207Z,4.37
2018-12-02T13:41:16.280Z,7.30
2018-12-02T13:43:44.328Z,8.07
2018-12-02T13:46:12.388Z,9.10
2018-12-02T13:48:40.469Z,4.70
2018-12-02T13:51:08.561Z,4.67
2018-12-02T13:53:42.288Z,5.20
2018-12-02T13:56:10.365Z,5.07
2018-12-02T13:58:38.489Z,2.60
2018-12-02T14:01:06.645Z,7.67
2018-12-02T14:03:34.684Z,6.60
2018-12-02T14:06:02.761Z,3.10
2018-12-02T14:08:30.820Z,5.60
2018-12-02T14:10:59.032Z,3.83
2018-12-02T14:13:28.220Z,3.67
2018-12-02T14:16:18.580Z,10.53
2018-12-02T14:18:46.717Z,4.13
2018-12-02T14:21:14.878Z,3.93
2018-12-02T14:23:43.636Z,4.50
2018-12-02T14:26:16.447Z,6.40
2018-12-02T14:28:54.048Z,8.70
2018-12-02T14:31:22.165Z,5.13
2018-12-02T14:33:50.272Z,2.97
2018-12-02T14:36:18.321Z,2.60
2018-12-02T14:38:46.448Z,9.53
2018-12-02T14:41:14.520Z,8.00
2018-12-02T14:43:42.620Z,7.20
2018-12-02T14:46:10.672Z,4.77
2018-12-02T14:48:38.786Z,8.77
2018-12-02T14:51:06.884Z,4.27
2018-12-02T14:53:35.275Z,6.60
2018-12-02T14:56:03.343Z,5.93
2018-12-02T14:58:31.451Z,7.70
2018-12-02T15:00:59.831Z,3.93
2018-12-02T15:03:27.962Z,4.13
2018-12-02T15:05:56.834Z,2.80
2018-12-02T15:08:24.935Z,3.73
2018-12-02T15:10:53.014Z,2.80
2018-12-02T15:13:21.086Z,4.13
2018-12-02T15:15:49.254Z,1.47
2018-12-02T15:18:17.353Z,4.63
2018-12-02T15:20:45.529Z,3.50
2018-12-02T15:23:13.718Z,2.53
2018-12-02T15:25:41.873Z,2.47
2018-12-02T15:28:11.285Z,3.30
2018-12-02T15:30:39.577Z,1.63
2018-12-02T15:33:09.277Z,1.23
2018-12-02T15:35:38.161Z,2.80
2018-12-02T15:38:07.360Z,1.97
2018-12-02T15:40:36.452Z,1.47
2018-12-02T15:43:06.315Z,6.03
2018-12-02T15:45:34.534Z,4.40
2018-12-02T15:48:02.744Z,1.93
2018-12-02T15:50:30.887Z,4.23
2018-12-02T15:53:01.009Z,1.70
2018-12-02T15:55:31.169Z,4.27
2018-12-02T15:58:00.489Z,3.40
2018-12-02T16:00:30.085Z,3.63
2018-12-02T16:02:59.151Z,1.70
2018-12-02T16:05:27.269Z,3.00
2018-12-02T16:07:55.411Z,1.30
2018-12-02T16:10:23.619Z,2.43
2018-12-02T16:12:52.893Z,3.33
2018-12-02T16:15:27.536Z,3.47
2018-12-02T16:17:55.620Z,1.67
2018-12-02T16:20:25.113Z,11.03
2018-12-02T16:22:53.294Z,17.93
2018-12-02T16:25:21.522Z,15.00
2018-12-02T16:27:49.721Z,24.33
2018-12-02T16:30:19.391Z,20.67
2018-12-02T16:32:50.592Z,30.77
2018-12-02T16:35:18.969Z,35.27
2018-12-02T16:37:50.545Z,24.13
2018-12-02T16:40:22.755Z,23.83
2018-12-02T16:42:55.069Z,25.33
2018-12-02T16:45:23.335Z,21.93
2018-12-02T16:50:30.381Z,22.83
2018-12-02T16:53:01.911Z,14.97
2018-12-02T16:55:31.861Z,28.80
2018-12-02T16:58:07.529Z,16.30
2018-12-02T17:00:43.837Z,15.07
2018-12-02T17:03:11.966Z,13.60
2018-12-02T17:05:40.052Z,19.93
2018-12-02T17:08:08.125Z,20.00
2018-12-02T17:10:36.222Z,19.37
2018-12-02T17:13:04.404Z,23.93
2018-12-02T17:15:32.477Z,25.47
2018-12-02T17:18:00.568Z,20.13
2018-12-02T17:20:28.653Z,21.83
2018-12-02T17:22:56.761Z,22.20
2018-12-02T17:25:24.904Z,19.10
2018-12-02T17:27:52.953Z,17.07
2018-12-02T17:31:27.038Z,17.80
2018-12-02T17:33:55.397Z,13.07
2018-12-02T17:36:23.793Z,17.07
2018-12-02T17:38:55.025Z,14.90
2018-12-02T17:41:23.164Z,13.47
2018-12-02T17:43:51.289Z,15.10
2018-12-02T17:46:19.354Z,14.50
2018-12-02T17:48:47.433Z,13.87
2018-12-02T17:51:15.492Z,12.03
2018-12-02T17:53:43.742Z,14.13
2018-12-02T17:56:12.078Z,13.37
2018-12-02T17:58:40.167Z,13.67
2018-12-02T18:01:08.825Z,11.50
2018-12-02T18:03:37.360Z,10.07
2018-12-02T18:06:07.537Z,10.17
2018-12-02T18:08:35.606Z,9.10
2018-12-02T18:11:03.920Z,13.63
2018-12-02T18:13:31.977Z,9.70
2018-12-02T18:16:00.061Z,10.53
2018-12-02T18:18:28.188Z,13.17
2018-12-02T18:20:56.252Z,13.87
2018-12-02T18:23:24.619Z,9.80
2018-12-02T18:25:52.701Z,13.30
2018-12-02T18:28:20.812Z,8.63
2018-12-02T18:30:48.868Z,8.37
2018-12-02T18:33:17.169Z,11.73
2018-12-02T18:36:05.525Z,8.63
2018-12-02T18:38:35.249Z,8.23
2018-12-02T18:41:13.097Z,10.70
2018-12-02T18:43:41.228Z,8.33
2018-12-02T18:46:09.712Z,7.63
2018-12-02T18:48:37.797Z,7.90
2018-12-02T18:51:06.469Z,10.83
2018-12-02T18:53:34.602Z,6.50
2018-12-02T18:56:02.721Z,7.60
2018-12-02T18:58:30.913Z,7.67
2018-12-02T19:00:58.996Z,6.17
2018-12-02T19:03:27.099Z,8.00
2018-12-02T19:05:55.169Z,6.67
2018-12-02T19:08:23.265Z,6.73
2018-12-02T19:10:56.501Z,6.53
2018-12-02T19:13:24.556Z,7.93
2018-12-02T19:15:52.617Z,7.50
2018-12-02T19:18:20.812Z,6.80
2018-12-02T19:20:50.061Z,9.13
2018-12-02T19:23:21.910Z,7.57
2018-12-02T19:25:50.084Z,8.03
2018-12-02T19:28:18.209Z,8.20
2018-12-02T19:30:46.274Z,4.13
2018-12-02T19:33:18.138Z,6.87
2018-12-02T19:35:46.204Z,4.87
2018-12-02T19:38:20.799Z,4.43
2018-12-02T19:40:48.924Z,4.87
2018-12-02T19:43:17.788Z,4.83
2018-12-02T19:45:47.342Z,4.43
2018-12-02T19:48:15.400Z,6.03
2018-12-02T19:50:43.573Z,5.40
2018-12-02T19:53:11.684Z,6.87
2018-12-02T19:55:39.769Z,3.77
2018-12-02T19:58:09.472Z,5.17
2018-12-02T20:00:42.160Z,5.93
2018-12-02T20:03:11.110Z,3.90
2018-12-02T20:05:39.445Z,4.57
2018-12-02T20:08:09.995Z,3.43
2018-12-02T20:10:38.536Z,6.13
2018-12-02T20:13:11.910Z,3.30
2018-12-02T20:15:45.381Z,6.83
2018-12-02T20:18:13.504Z,3.60
2018-12-02T20:20:49.257Z,5.23
2018-12-02T20:23:23.238Z,3.67
2018-12-02T20:25:52.337Z,3.83
2018-12-02T20:28:21.058Z,8.10
2018-12-02T20:30:49.209Z,4.40
2018-12-02T20:33:17.277Z,4.90
2018-12-02T20:35:45.368Z,5.37
2018-12-02T20:38:13.511Z,4.23
2018-12-02T20:40:41.604Z,5.97
2018-12-02T20:43:09.684Z,3.23
2018-12-02T20:45:37.813Z,4.27
2018-12-02T20:48:05.904Z,5.83
2018-12-02T20:50:34.251Z,4.37
2018-12-02T20:53:02.637Z,5.60
2018-12-02T20:55:30.848Z,4.20
2018-12-02T20:58:00.573Z,3.87
2018-12-02T21:00:28.692Z,4.73
2018-12-02T21:03:17.339Z,4.40
2018-12-02T21:06:09.088Z,3.83
2018-12-02T21:08:37.213Z,6.83
2018-12-02T21:11:05.465Z,5.63
2018-12-02T21:13:33.562Z,4.40
2018-12-02T21:16:01.612Z,3.77
2018-12-02T21:18:29.702Z,6.30
2018-12-02T21:20:58.010Z,3.43
2018-12-02T21:23:26.117Z,2.80
2018-12-02T21:25:54.429Z,5.00
2018-12-02T21:28:24.248Z,7.67
2018-12-02T21:30:52.318Z,7.37
2018-12-02T21:33:20.393Z,3.53
2018-12-02T21:35:48.725Z,4.30
2018-12-02T21:38:17.033Z,5.37
2018-12-02T21:40:45.140Z,3.70
2018-12-02T21:43:13.564Z,3.80
2018-12-02T21:45:41.637Z,7.70
2018-12-02T21:48:11.801Z,3.13
2018-12-02T21:50:39.884Z,2.73
2018-12-02T21:53:07.965Z,3.00
2018-12-02T21:55:36.024Z,4.17
2018-12-02T21:58:04.105Z,5.47
2018-12-02T22:00:37.589Z,4.00
2018-12-02T22:03:05.679Z,4.30
2018-12-02T22:05:33.728Z,3.13
2018-12-02T22:08:02.024Z,6.70
2018-12-02T22:10:31.277Z,4.47
2018-12-02T22:12:59.469Z,3.50
2018-12-02T22:15:27.548Z,3.13
2018-12-02T22:17:55.677Z,4.97
2018-12-02T22:20:23.733Z,6.63
2018-12-02T22:22:51.833Z,8.13
2018-12-02T22:25:20.897Z,11.97
2018-12-02T22:27:51.424Z,6.73
2018-12-02T22:30:21.636Z,3.80
2018-12-02T22:32:49.756Z,6.57
2018-12-02T22:35:17.852Z,3.03
2018-12-02T22:37:46.528Z,6.77
2018-12-02T22:40:18.110Z,6.20
2018-12-02T22:42:46.204Z,2.70
2018-12-02T22:45:17.865Z,5.50
2018-12-02T22:47:45.976Z,5.07
2018-12-02T22:50:16.965Z,3.10
2018-12-02T22:52:46.124Z,4.07
2018-12-02T22:55:14.267Z,2.23
2018-12-02T22:57:42.706Z,5.83
2018-12-02T23:02:24.560Z,3.73
2018-12-02T23:04:52.643Z,4.53
2018-12-02T23:07:20.793Z,2.53
2018-12-02T23:09:48.925Z,2.37
2018-12-02T23:12:17.228Z,2.13
2018-12-02T23:14:45.304Z,3.33
2018-12-02T23:17:19.860Z,4.83
2018-12-02T23:19:47.931Z,3.13
2018-12-02T23:22:16.410Z,2.67
2018-12-02T23:24:44.513Z,3.67
2018-12-02T23:27:12.612Z,3.97
2018-12-02T23:29:40.725Z,2.17
2018-12-02T23:32:08.804Z,2.77
2018-12-02T23:34:36.851Z,1.70
2018-12-02T23:37:04.925Z,1.40
2018-12-02T23:39:33.004Z,2.47
2018-12-02T23:42:01.114Z,3.53
2018-12-02T23:44:29.184Z,3.90
2018-12-02T23:46:57.604Z,3.40
2018-12-02T23:49:25.684Z,2.20
2018-12-02T23:51:53.733Z,3.07
2018-12-02T23:54:21.820Z,5.33
2018-12-02T23:56:49.866Z,3.67
2018-12-02T23:59:18.231Z,1.40
